Terminal Aerodrome Forecast
Issued by NWS

Home | Current Version | Previous Version | Text Only | Print | Product List | Glossary On
Versions: 1 2 3 4 5 6 7 8 9 10 11 12 13 14 15 16
000
FTAK31 PAFA 172320
TAFAMC
TAF
PAMC 172320Z 1800/1824 27003KT P6SM FEW120 BKN200
     FM181000 32003KT 6SM -SN BR BKN035 OVC050=

USA.gov is the U.S. government's official web portal to all federal, state and local government web resources and services.